createdAt,value
2018-12-04T00:00:33.116Z,932.01
2018-12-04T00:01:34.089Z,932.23
2018-12-04T00:02:34.505Z,932.17
2018-12-04T00:03:35.483Z,932.06
2018-12-04T00:04:35.736Z,931.92
2018-12-04T00:05:36.442Z,932.16
2018-12-04T00:06:36.860Z,932.09
2018-12-04T00:07:37.696Z,932.39
2018-12-04T00:08:38.391Z,932.32
2018-12-04T00:09:39.534Z,932.36
2018-12-04T00:10:40.507Z,932.34
2018-12-04T00:11:40.928Z,932.3
2018-12-04T00:12:41.630Z,932.26
2018-12-04T00:13:42.769Z,932.28
2018-12-04T00:14:43.924Z,932.37
2018-12-04T00:15:44.616Z,932.37
2018-12-04T00:16:45.594Z,932.35
2018-12-04T00:17:46.720Z,932.31
2018-12-04T00:18:46.972Z,932.11
2018-12-04T00:19:47.948Z,932.27
2018-12-04T00:20:48.685Z,932.23
2018-12-04T00:21:49.420Z,932.24
2018-12-04T00:22:49.838Z,932.36
2018-12-04T00:23:50.536Z,932.31
2018-12-04T00:24:50.954Z,932.33
2018-12-04T00:25:52.100Z,932.15
2018-12-04T00:26:53.243Z,932.2
2018-12-04T00:27:53.924Z,932.1
2018-12-04T00:28:55.069Z,932.19
2018-12-04T00:29:56.042Z,932.23
2018-12-04T00:30:56.740Z,932.28
2018-12-04T00:31:57.436Z,932.39
2018-12-04T00:32:58.134Z,932.4
2018-12-04T00:33:58.388Z,932.33
2018-12-04T00:34:58.806Z,932.28
2018-12-04T00:35:59.226Z,932.34
2018-12-04T00:36:59.950Z,932.38
2018-12-04T00:38:00.527Z,932.4
2018-12-04T00:39:02.453Z,932.36
2018-12-04T00:40:03.433Z,932.43
2018-12-04T00:41:03.852Z,932.44
2018-12-04T00:42:04.555Z,932.49
2018-12-04T00:43:05.264Z,932.52
2018-12-04T00:44:06.404Z,932.51
2018-12-04T00:45:07.103Z,932.42
2018-12-04T00:46:07.525Z,932.54
2018-12-04T00:47:07.939Z,932.56
2018-12-04T00:48:08.531Z,932.46
2018-12-04T00:49:09.505Z,932.4
2018-12-04T00:50:10.485Z,932.5
2018-12-04T00:51:11.180Z,932.56
2018-12-04T00:52:12.154Z,932.48
2018-12-04T00:53:12.854Z,932.55
2018-12-04T00:54:13.996Z,932.66
2018-12-04T00:55:14.969Z,932.55
2018-12-04T00:56:15.668Z,932.51
2018-12-04T00:57:16.818Z,932.55
2018-12-04T00:58:17.967Z,932.6
2018-12-04T00:59:19.112Z,932.66
2018-12-04T01:00:19.807Z,932.54
2018-12-04T01:01:21.066Z,932.64
2018-12-04T01:02:21.759Z,932.62
2018-12-04T01:03:22.183Z,932.62
2018-12-04T01:04:22.884Z,932.6
2018-12-04T01:05:24.022Z,932.59
2018-12-04T01:06:24.445Z,932.61
2018-12-04T01:07:25.145Z,932.77
2018-12-04T01:08:25.692Z,932.45
2018-12-04T01:09:26.110Z,932.69
2018-12-04T01:10:27.250Z,932.64
2018-12-04T01:11:28.390Z,932.62
2018-12-04T01:12:29.087Z,932.77
2018-12-04T01:13:29.783Z,932.72
2018-12-04T01:14:30.485Z,932.74
2018-12-04T01:15:31.180Z,932.75
2018-12-04T01:16:32.318Z,932.78
2018-12-04T01:17:33.452Z,932.79
2018-12-04T01:18:34.285Z,932.81
2018-12-04T01:19:35.247Z,932.82
2018-12-04T01:20:35.933Z,932.86
2018-12-04T01:21:37.177Z,932.88
2018-12-04T01:22:37.423Z,932.98
2018-12-04T01:23:37.834Z,932.95
2018-12-04T01:24:38.803Z,932.94
2018-12-04T01:25:39.488Z,932.94
2018-12-04T01:26:39.896Z,933
2018-12-04T01:27:40.305Z,932.92
2018-12-04T01:28:41.154Z,932.94
2018-12-04T01:29:41.849Z,932.96
2018-12-04T01:30:42.985Z,932.97
2018-12-04T01:31:43.952Z,932.95
2018-12-04T01:32:44.631Z,932.91
2018-12-04T01:33:45.597Z,932.98
2018-12-04T01:34:47.005Z,932.93
2018-12-04T01:35:47.967Z,932.97
2018-12-04T01:36:49.886Z,932.98
2018-12-04T01:37:49.384Z,932.89
2018-12-04T01:38:50.481Z,932.93
2018-12-04T01:39:51.607Z,932.93
2018-12-04T01:40:51.847Z,932.96
2018-12-04T01:41:52.259Z,932.98
2018-12-04T01:42:53.387Z,932.99
2018-12-04T01:43:54.073Z,932.94
2018-12-04T01:44:54.482Z,932.91
2018-12-04T01:45:54.889Z,933.03
2018-12-04T01:46:56.304Z,933.04
2018-12-04T01:47:56.989Z,933
2018-12-04T01:48:57.798Z,932.95
2018-12-04T01:49:58.522Z,932.97
2018-12-04T01:50:59.208Z,932.98
2018-12-04T01:51:59.656Z,933.01
2018-12-04T01:53:01.063Z,933.01
2018-12-04T01:54:01.473Z,933.04
2018-12-04T01:55:02.158Z,932.95
2018-12-04T01:56:02.845Z,932.95
2018-12-04T01:57:03.975Z,932.99
2018-12-04T01:58:04.939Z,932.93
2018-12-04T01:59:05.308Z,933.07
2018-12-04T02:00:06.719Z,933.03
2018-12-04T02:01:07.134Z,932.97
2018-12-04T02:02:07.543Z,933.01
2018-12-04T02:03:07.953Z,933.04
2018-12-04T02:04:08.919Z,933
2018-12-04T02:05:09.888Z,933.09
2018-12-04T02:06:10.296Z,932.96
2018-12-04T02:07:10.703Z,933.11
2018-12-04T02:08:11.114Z,933.03
2018-12-04T02:09:12.229Z,933.01
2018-12-04T02:10:13.226Z,932.94
2018-12-04T02:11:13.922Z,932.96
2018-12-04T02:12:14.649Z,933.05
2018-12-04T02:13:14.898Z,932.99
2018-12-04T02:14:15.583Z,933.09
2018-12-04T02:15:16.271Z,933.11
2018-12-04T02:16:16.958Z,933.09
2018-12-04T02:17:18.088Z,933.06
2018-12-04T02:18:19.052Z,933.14
2018-12-04T02:19:20.148Z,933.13
2018-12-04T02:20:20.559Z,933.15
2018-12-04T02:21:20.966Z,933.14
2018-12-04T02:22:21.408Z,933.13
2018-12-04T02:23:22.371Z,933.14
2018-12-04T02:24:23.337Z,933.16
2018-12-04T02:25:24.020Z,933.15
2018-12-04T02:26:24.709Z,933.17
2018-12-04T02:27:25.394Z,933.17
2018-12-04T02:28:25.802Z,933.18
2018-12-04T02:29:26.901Z,933.19
2018-12-04T02:30:27.143Z,933.21
2018-12-04T02:31:27.662Z,933.15
2018-12-04T02:32:28.181Z,933.31
2018-12-04T02:33:28.875Z,933.33
2018-12-04T02:34:29.840Z,933.36
2018-12-04T02:35:30.535Z,933.21
2018-12-04T02:36:31.220Z,933.34
2018-12-04T02:37:32.353Z,933.29
2018-12-04T02:38:32.598Z,933.26
2018-12-04T02:39:33.114Z,933.37
2018-12-04T02:40:34.123Z,933.39
2018-12-04T02:41:35.370Z,933.37
2018-12-04T02:42:36.344Z,933.34
2018-12-04T02:43:37.305Z,933.33
2018-12-04T02:44:37.990Z,933.4
2018-12-04T02:45:38.398Z,933.42
2018-12-04T02:46:39.090Z,933.42
2018-12-04T02:47:39.770Z,933.42
2018-12-04T02:48:40.479Z,933.46
2018-12-04T02:49:40.876Z,933.42
2018-12-04T02:50:41.288Z,933.42
2018-12-04T02:51:42.248Z,933.51
2018-12-04T02:52:43.211Z,933.42
2018-12-04T02:53:43.901Z,933.45
2018-12-04T02:54:44.426Z,933.47
2018-12-04T02:55:45.562Z,933.48
2018-12-04T02:56:46.087Z,933.46
2018-12-04T02:57:47.230Z,933.47
2018-12-04T02:58:47.917Z,933.5
2018-12-04T02:59:48.314Z,933.48
2018-12-04T03:00:48.734Z,933.5
2018-12-04T03:01:49.709Z,933.52
2018-12-04T03:02:50.667Z,933.52
2018-12-04T03:03:51.632Z,933.52
2018-12-04T03:04:51.879Z,933.56
2018-12-04T03:05:52.609Z,933.57
2018-12-04T03:06:53.737Z,933.5
2018-12-04T03:07:54.733Z,933.52
2018-12-04T03:08:55.434Z,933.48
2018-12-04T03:09:56.863Z,933.54
2018-12-04T03:10:57.826Z,933.52
2018-12-04T03:11:59.081Z,933.59
2018-12-04T03:13:00.056Z,933.57
2018-12-04T03:14:00.794Z,933.56
2018-12-04T03:15:01.034Z,933.55
2018-12-04T03:16:01.714Z,933.56
2018-12-04T03:17:01.958Z,933.53
2018-12-04T03:18:02.924Z,933.46
2018-12-04T03:19:03.620Z,933.54
2018-12-04T03:20:03.846Z,933.56
2018-12-04T03:21:04.531Z,933.52
2018-12-04T03:22:05.224Z,933.57
2018-12-04T03:23:06.189Z,933.58
2018-12-04T03:24:07.161Z,933.61
2018-12-04T03:25:08.402Z,933.62
2018-12-04T03:26:08.923Z,933.72
2018-12-04T03:27:09.884Z,933.73
2018-12-04T03:28:11.123Z,933.77
2018-12-04T03:29:11.648Z,933.74
2018-12-04T03:30:12.498Z,933.73
2018-12-04T03:31:13.566Z,933.73
2018-12-04T03:32:14.395Z,933.72
2018-12-04T03:33:14.660Z,933.8
2018-12-04T03:34:15.488Z,933.67
2018-12-04T03:35:16.615Z,933.8
2018-12-04T03:36:16.860Z,933.69
2018-12-04T03:37:17.602Z,933.81
2018-12-04T03:38:18.286Z,933.76
2018-12-04T03:39:19.091Z,933.68
2018-12-04T03:40:19.924Z,933.82
2018-12-04T03:41:20.891Z,933.67
2018-12-04T03:42:21.592Z,933.73
2018-12-04T03:43:22.278Z,933.81
2018-12-04T03:44:22.994Z,933.97
2018-12-04T03:45:23.520Z,933.67
2018-12-04T03:46:24.223Z,933.77
2018-12-04T03:47:25.350Z,933.86
2018-12-04T03:48:25.763Z,933.86
2018-12-04T03:49:26.728Z,933.94
2018-12-04T03:50:28.160Z,933.94
2018-12-04T03:51:29.144Z,933.94
2018-12-04T03:52:30.469Z,933.98
2018-12-04T03:53:31.712Z,933.93
2018-12-04T03:54:32.955Z,933.96
2018-12-04T03:55:34.705Z,933.97
2018-12-04T03:56:35.111Z,934.01
2018-12-04T03:57:35.817Z,934.01
2018-12-04T03:58:36.785Z,934.03
2018-12-04T03:59:37.579Z,933.88
2018-12-04T04:00:38.246Z,933.87
2018-12-04T04:01:38.697Z,933.95
2018-12-04T04:02:39.109Z,934.01
2018-12-04T04:03:39.359Z,933.99
2018-12-04T04:04:40.382Z,933.99
2018-12-04T04:05:41.347Z,934.01
2018-12-04T04:06:42.490Z,934.01
2018-12-04T04:07:43.464Z,934
2018-12-04T04:08:44.153Z,933.99
2018-12-04T04:09:45.130Z,933.94
2018-12-04T04:10:45.745Z,933.99
2018-12-04T04:11:46.428Z,934.02
2018-12-04T04:12:46.848Z,934.05
2018-12-04T04:13:47.843Z,933.98
2018-12-04T04:14:48.974Z,934.07
2018-12-04T04:15:49.661Z,934.03
2018-12-04T04:16:50.395Z,934.1
2018-12-04T04:17:51.089Z,934.07
2018-12-04T04:18:52.053Z,934.12
2018-12-04T04:19:53.182Z,934.11
2018-12-04T04:20:53.735Z,934.13
2018-12-04T04:21:54.724Z,934.09
2018-12-04T04:22:55.693Z,934.12
2018-12-04T04:23:56.223Z,934.16
2018-12-04T04:24:57.193Z,934.12
2018-12-04T04:25:58.157Z,934.01
2018-12-04T04:26:59.125Z,934.12
2018-12-04T04:27:59.367Z,934.11
2018-12-04T04:29:00.057Z,934.13
2018-12-04T04:30:01.027Z,934.19
2018-12-04T04:31:01.226Z,934.12
2018-12-04T04:32:02.195Z,934.16
2018-12-04T04:33:02.891Z,934.19
2018-12-04T04:34:04.132Z,934.19
2018-12-04T04:35:05.102Z,934.2
2018-12-04T04:36:05.784Z,934.23
2018-12-04T04:37:06.751Z,934.33
2018-12-04T04:38:07.556Z,934.28
2018-12-04T04:39:07.964Z,934.27
2018-12-04T04:40:08.654Z,934.27
2018-12-04T04:41:09.619Z,934.27
2018-12-04T04:42:10.584Z,934.23
2018-12-04T04:43:11.384Z,934.25
2018-12-04T04:44:11.635Z,934.23
2018-12-04T04:45:12.045Z,934.22
2018-12-04T04:46:12.730Z,934.28
2018-12-04T04:47:13.845Z,934.32
2018-12-04T04:48:14.249Z,934.31
2018-12-04T04:49:14.975Z,934.34
2018-12-04T04:50:15.943Z,934.4
2018-12-04T04:51:16.356Z,934.3
2018-12-04T04:52:16.778Z,934.35
2018-12-04T04:53:17.737Z,934.44
2018-12-04T04:54:18.258Z,934.42
2018-12-04T04:55:18.515Z,934.4
2018-12-04T04:56:19.062Z,934.52
2018-12-04T04:57:19.580Z,934.69
2018-12-04T04:58:20.651Z,934.59
2018-12-04T04:59:21.339Z,934.56
2018-12-04T05:00:22.351Z,934.54
2018-12-04T05:01:23.466Z,934.57
2018-12-04T05:02:23.718Z,934.6
2018-12-04T05:03:25.126Z,934.57
2018-12-04T05:04:25.819Z,934.67
2018-12-04T05:05:26.514Z,934.66
2018-12-04T05:06:26.931Z,934.64
2018-12-04T05:07:27.893Z,934.65
2018-12-04T05:08:28.628Z,934.63
2018-12-04T05:09:28.886Z,934.66
2018-12-04T05:10:29.572Z,934.69
2018-12-04T05:11:29.963Z,934.74
2018-12-04T05:12:30.372Z,934.66
2018-12-04T05:13:30.610Z,934.65
2018-12-04T05:14:31.128Z,934.78
2018-12-04T05:15:31.533Z,934.79
2018-12-04T05:16:32.604Z,934.89
2018-12-04T05:17:33.130Z,934.74
2018-12-04T05:18:33.536Z,934.58
2018-12-04T05:19:33.839Z,934.68
2018-12-04T05:20:34.522Z,934.74
2018-12-04T05:21:35.196Z,934.75
2018-12-04T05:22:35.887Z,934.79
2018-12-04T05:23:36.847Z,934.76
2018-12-04T05:24:37.982Z,934.76
2018-12-04T05:25:38.387Z,934.75
2018-12-04T05:26:39.070Z,934.87
2018-12-04T05:27:40.028Z,934.87
2018-12-04T05:28:40.998Z,934.82
2018-12-04T05:29:41.991Z,934.81
2018-12-04T05:30:42.961Z,934.83
2018-12-04T05:31:43.439Z,934.87
2018-12-04T05:32:44.852Z,934.86
2018-12-04T05:33:46.020Z,934.9
2018-12-04T05:34:47.147Z,934.92
2018-12-04T05:35:48.274Z,934.95
2018-12-04T05:36:48.953Z,934.92
2018-12-04T05:37:49.192Z,934.82
2018-12-04T05:38:49.600Z,934.85
2018-12-04T05:39:50.841Z,934.91
2018-12-04T05:40:51.250Z,934.87
2018-12-04T05:41:51.640Z,934.82
2018-12-04T05:42:52.047Z,934.87
2018-12-04T05:43:53.008Z,934.82
2018-12-04T05:44:53.690Z,934.85
2018-12-04T05:45:54.824Z,934.84
2018-12-04T05:46:55.507Z,934.82
2018-12-04T05:47:56.468Z,934.82
2018-12-04T05:48:57.156Z,934.87
2018-12-04T05:49:58.285Z,934.9
2018-12-04T05:50:58.901Z,934.89
2018-12-04T05:51:59.436Z,934.89
2018-12-04T05:53:00.125Z,934.92
2018-12-04T05:54:00.808Z,934.95
2018-12-04T05:55:02.054Z,934.91
2018-12-04T05:56:03.013Z,934.91
2018-12-04T05:57:03.418Z,934.92
2018-12-04T05:58:03.936Z,934.97
2018-12-04T05:59:04.176Z,934.97
2018-12-04T06:00:04.580Z,934.94
2018-12-04T06:01:05.264Z,934.98
2018-12-04T06:02:05.813Z,935.05
2018-12-04T06:03:06.941Z,934.99
2018-12-04T06:04:07.672Z,935.08
2018-12-04T06:05:08.077Z,935.03
2018-12-04T06:06:08.484Z,935.06
2018-12-04T06:07:09.167Z,935.05
2018-12-04T06:08:10.130Z,935.05
2018-12-04T06:09:10.806Z,935.03
2018-12-04T06:10:11.212Z,935.02
2018-12-04T06:11:11.630Z,935.1
2018-12-04T06:12:12.152Z,935.12
2018-12-04T06:13:12.392Z,935.11
2018-12-04T06:14:12.914Z,935.07
2018-12-04T06:15:14.320Z,935.09
2018-12-04T06:16:15.296Z,935.14
2018-12-04T06:17:15.734Z,935.2
2018-12-04T06:18:16.143Z,935.16
2018-12-04T06:19:16.832Z,935.14
2018-12-04T06:20:17.964Z,935.21
2018-12-04T06:21:18.648Z,935.21
2018-12-04T06:22:19.740Z,935.15
2018-12-04T06:23:20.702Z,935.14
2018-12-04T06:24:21.513Z,935.15
2018-12-04T06:25:22.197Z,935.17
2018-12-04T06:26:22.712Z,935.17
2018-12-04T06:27:23.841Z,935.2
2018-12-04T06:28:24.525Z,935.15
2018-12-04T06:29:25.489Z,935.22
2018-12-04T06:30:26.454Z,935.24
2018-12-04T06:31:27.140Z,935.28
2018-12-04T06:32:27.958Z,935.24
2018-12-04T06:33:28.365Z,935.29
2018-12-04T06:34:29.331Z,935.32
2018-12-04T06:35:29.780Z,935.32
2018-12-04T06:36:30.191Z,935.28
2018-12-04T06:37:30.593Z,935.26
2018-12-04T06:38:31.280Z,935.26
2018-12-04T06:39:31.719Z,935.27
2018-12-04T06:40:33.127Z,935.36
2018-12-04T06:41:33.534Z,935.32
2018-12-04T06:42:34.064Z,935.37
2018-12-04T06:43:34.472Z,935.38
2018-12-04T06:44:35.897Z,935.34
2018-12-04T06:45:36.863Z,935.38
2018-12-04T06:46:37.273Z,935.41
2018-12-04T06:47:37.956Z,935.46
2018-12-04T06:48:38.660Z,935.5
2018-12-04T06:49:39.069Z,935.53
2018-12-04T06:50:39.754Z,935.5
2018-12-04T06:51:40.717Z,935.37
2018-12-04T06:52:41.527Z,935.38
2018-12-04T06:53:42.659Z,935.43
2018-12-04T06:54:43.342Z,935.55
2018-12-04T06:55:44.025Z,935.59
2018-12-04T06:56:44.431Z,935.64
2018-12-04T06:57:45.595Z,935.68
2018-12-04T06:58:46.555Z,935.76
2018-12-04T06:59:47.686Z,935.71
2018-12-04T07:00:48.653Z,935.76
2018-12-04T07:01:49.340Z,935.77
2018-12-04T07:02:50.168Z,935.79
2018-12-04T07:03:50.594Z,935.75
2018-12-04T07:04:51.550Z,935.72
2018-12-04T07:05:53.528Z,935.85
2018-12-04T07:06:54.489Z,935.97
2018-12-04T07:07:56.118Z,936
2018-12-04T07:08:56.225Z,936.05
2018-12-04T07:09:56.909Z,936.08
2018-12-04T07:10:57.873Z,936.09
2018-12-04T07:12:03.169Z,936.1
2018-12-04T07:13:04.293Z,936.14
2018-12-04T07:14:05.262Z,936.24
2018-12-04T07:15:06.676Z,936.29
2018-12-04T07:16:07.407Z,936.32
2018-12-04T07:17:08.155Z,936.44
2018-12-04T07:18:08.354Z,936.46
2018-12-04T07:19:08.596Z,936.48
2018-12-04T07:20:09.278Z,936.51
2018-12-04T07:21:11.492Z,936.54
2018-12-04T07:21:22.027Z,936.56
2018-12-04T07:22:24.101Z,936.6
2018-12-04T07:23:24.039Z,936.59
2018-12-04T07:24:24.633Z,936.63
2018-12-04T07:25:25.042Z,936.63
2018-12-04T07:26:26.168Z,936.71
2018-12-04T07:27:26.579Z,936.74
2018-12-04T07:28:27.539Z,936.88
2018-12-04T07:29:28.243Z,937
2018-12-04T07:30:28.485Z,937.08
2018-12-04T07:31:29.895Z,937.14
2018-12-04T07:32:32.036Z,937.18
2018-12-04T07:32:42.486Z,937.21
2018-12-04T07:33:43.316Z,937.35
2018-12-04T07:34:45.327Z,937.44
2018-12-04T07:35:46.844Z,937.43
2018-12-04T07:36:48.985Z,937.51
2018-12-04T07:37:48.939Z,937.55
2018-12-04T07:38:49.734Z,937.52
2018-12-04T07:39:50.147Z,937.41
2018-12-04T07:40:50.827Z,937.47
2018-12-04T07:41:52.271Z,937.35
2018-12-04T07:42:54.768Z,937.5
2018-12-04T07:43:06.806Z,937.41
2018-12-04T07:43:20.001Z,937.49
2018-12-04T07:43:31.887Z,937.47
2018-12-04T07:44:32.158Z,937.46
2018-12-04T07:45:32.843Z,937.33
2018-12-04T07:46:33.527Z,937.39
2018-12-04T07:47:34.698Z,937.28
2018-12-04T07:48:36.246Z,937.34
2018-12-04T07:49:38.201Z,937.28
2018-12-04T07:49:48.997Z,937.26
2018-12-04T07:50:50.536Z,937.2
2018-12-04T07:51:02.133Z,937.2
2018-12-04T07:52:04.703Z,937.26
2018-12-04T07:53:05.083Z,937.19
2018-12-04T07:54:05.595Z,937.36
2018-12-04T07:55:06.281Z,937.44
2018-12-04T07:56:07.416Z,937.39
2018-12-04T07:57:09.365Z,937.42
2018-12-04T07:57:20.718Z,937.38
2018-12-04T07:57:32.070Z,937.39
2018-12-04T07:58:32.852Z,937.35
2018-12-04T07:59:33.816Z,937.34
2018-12-04T08:00:35.809Z,937.28
2018-12-04T08:00:47.393Z,937.09
2018-12-04T08:01:49.473Z,937.29
2018-12-04T08:02:00.465Z,937.27
2018-12-04T08:03:00.476Z,937.11
2018-12-04T08:04:02.678Z,937.24
2018-12-04T08:04:13.932Z,937.2
2018-12-04T08:05:16.206Z,937.17
2018-12-04T08:05:26.964Z,937.19
2018-12-04T08:06:27.517Z,937.31
2018-12-04T08:07:28.233Z,937.31
2018-12-04T08:08:29.663Z,937.35
2018-12-04T08:09:32.212Z,937.31
2018-12-04T08:09:42.822Z,937.35
2018-12-04T08:10:44.150Z,937.4
2018-12-04T08:10:55.339Z,937.4
2018-12-04T08:11:55.458Z,937.41
2018-12-04T08:12:56.148Z,937.47
2018-12-04T08:13:56.834Z,937.51
2018-12-04T08:14:57.238Z,937.5
2018-12-04T08:15:57.644Z,937.55
2018-12-04T08:16:58.099Z,937.58
2018-12-04T08:17:58.784Z,937.6
2018-12-04T08:18:59.467Z,937.62
2018-12-04T08:20:00.154Z,937.68
2018-12-04T08:21:00.845Z,937.62
2018-12-04T08:22:01.595Z,937.64
2018-12-04T08:23:02.527Z,937.65
2018-12-04T08:24:02.901Z,937.68
2018-12-04T08:25:03.380Z,937.68
2018-12-04T08:26:03.625Z,937.71
2018-12-04T08:27:04.753Z,937.76
2018-12-04T08:28:04.997Z,937.77
2018-12-04T08:29:05.409Z,937.79
2018-12-04T08:30:05.830Z,937.86
2018-12-04T08:31:07.660Z,937.91
2018-12-04T08:32:07.956Z,937.92
2018-12-04T08:33:09.300Z,937.92
2018-12-04T08:34:09.539Z,937.98
2018-12-04T08:35:11.459Z,937.95
2018-12-04T08:36:11.954Z,937.97
2018-12-04T08:37:13.370Z,938
2018-12-04T08:38:13.611Z,938
2018-12-04T08:39:14.304Z,938.02
2018-12-04T08:40:15.436Z,938.04
2018-12-04T08:41:16.170Z,938.09
2018-12-04T08:42:16.989Z,938.1
2018-12-04T08:43:17.682Z,938.18
2018-12-04T08:44:18.813Z,938.16
2018-12-04T08:45:19.948Z,938.18
2018-12-04T08:46:20.634Z,938.17
2018-12-04T08:47:21.322Z,938.22
2018-12-04T08:48:21.731Z,938.27
2018-12-04T08:49:21.974Z,938.23
2018-12-04T08:50:22.659Z,938.25
2018-12-04T08:51:23.631Z,938.2
2018-12-04T08:52:24.554Z,938.23
2018-12-04T08:53:25.518Z,938.26
2018-12-04T08:54:26.480Z,938.35
2018-12-04T08:55:27.891Z,938.35
2018-12-04T08:56:30.209Z,938.34
2018-12-04T08:57:30.618Z,938.38
2018-12-04T08:58:31.582Z,938.37
2018-12-04T08:59:32.270Z,938.39
2018-12-04T09:00:32.954Z,938.39
2018-12-04T09:01:33.641Z,938.46
2018-12-04T09:02:34.296Z,938.47
2018-12-04T09:03:34.979Z,938.5
2018-12-04T09:04:35.392Z,938.46
2018-12-04T09:05:37.279Z,938.54
2018-12-04T09:05:49.807Z,938.48
2018-12-04T09:06:50.681Z,938.53
2018-12-04T09:07:51.651Z,938.53
2018-12-04T09:08:52.427Z,938.56
2018-12-04T09:09:53.330Z,938.61
2018-12-04T09:10:54.013Z,938.63
2018-12-04T09:11:55.426Z,938.65
2018-12-04T09:12:55.883Z,938.68
2018-12-04T09:13:57.014Z,938.67
2018-12-04T09:14:57.989Z,938.7
2018-12-04T09:15:58.736Z,938.66
2018-12-04T09:16:59.836Z,938.67
2018-12-04T09:18:00.522Z,938.67
2018-12-04T09:19:01.303Z,938.63
2018-12-04T09:20:01.931Z,938.61
2018-12-04T09:21:02.679Z,938.67
2018-12-04T09:22:03.038Z,938.7
2018-12-04T09:23:03.912Z,938.7
2018-12-04T09:24:04.853Z,938.68
2018-12-04T09:25:05.880Z,938.62
2018-12-04T09:26:06.989Z,938.61
2018-12-04T09:27:08.126Z,938.59
2018-12-04T09:28:09.527Z,938.55
2018-12-04T09:29:10.043Z,938.55
2018-12-04T09:30:10.716Z,938.54
2018-12-04T09:31:11.311Z,938.52
2018-12-04T09:32:12.001Z,938.64
2018-12-04T09:33:12.690Z,938.53
2018-12-04T09:34:13.380Z,938.56
2018-12-04T09:35:14.360Z,938.53
2018-12-04T09:36:14.776Z,938.47
2018-12-04T09:37:15.897Z,938.53
2018-12-04T09:38:16.145Z,938.51
2018-12-04T09:39:18.170Z,938.55
2018-12-04T09:39:29.119Z,938.53
2018-12-04T09:39:41.707Z,938.53
2018-12-04T09:39:53.076Z,938.56
2018-12-04T09:40:54.510Z,938.53
2018-12-04T09:41:55.656Z,938.52
2018-12-04T09:42:56.344Z,938.51
2018-12-04T09:43:08.404Z,938.51
2018-12-04T09:44:09.516Z,938.51
2018-12-04T09:45:10.497Z,938.54
2018-12-04T09:46:10.906Z,938.6
2018-12-04T09:47:11.603Z,938.61
2018-12-04T09:48:12.025Z,938.53
2018-12-04T09:49:13.408Z,938.64
2018-12-04T09:50:13.653Z,938.56
2018-12-04T09:51:14.350Z,938.63
2018-12-04T09:52:14.760Z,938.73
2018-12-04T09:53:15.918Z,938.77
2018-12-04T09:54:16.368Z,938.79
2018-12-04T09:55:16.821Z,938.82
2018-12-04T09:56:17.235Z,938.84
2018-12-04T09:57:18.342Z,938.83
2018-12-04T09:58:18.981Z,938.79
2018-12-04T09:59:19.725Z,938.79
2018-12-04T10:00:20.860Z,938.76
2018-12-04T10:01:21.996Z,938.71
2018-12-04T10:02:23.326Z,938.7
2018-12-04T10:03:23.928Z,938.65
2018-12-04T10:04:25.555Z,938.64
2018-12-04T10:05:27.300Z,938.69
2018-12-04T10:06:28.895Z,938.6
2018-12-04T10:06:40.287Z,938.56
2018-12-04T10:07:41.409Z,938.65
2018-12-04T10:08:42.095Z,938.63
2018-12-04T10:09:42.825Z,938.57
2018-12-04T10:10:43.283Z,938.68
2018-12-04T10:11:43.693Z,938.7
2018-12-04T10:12:44.912Z,938.71
2018-12-04T10:13:45.287Z,938.72
2018-12-04T10:14:45.972Z,938.72
2018-12-04T10:15:46.670Z,938.79
2018-12-04T10:16:47.801Z,938.63
2018-12-04T10:17:48.640Z,938.61
2018-12-04T10:18:49.600Z,938.72
2018-12-04T10:19:50.291Z,938.63
2018-12-04T10:20:50.979Z,938.64
2018-12-04T10:21:52.110Z,938.69
2018-12-04T10:22:53.244Z,938.71
2018-12-04T10:23:54.216Z,938.69
2018-12-04T10:24:54.901Z,938.74
2018-12-04T10:25:55.596Z,938.8
2018-12-04T10:26:56.015Z,938.78
2018-12-04T10:27:57.145Z,938.81
2018-12-04T10:28:58.111Z,938.79
2018-12-04T10:30:00.304Z,938.73
2018-12-04T10:30:59.912Z,938.7
2018-12-04T10:32:00.324Z,938.67
2018-12-04T10:33:01.017Z,938.75
2018-12-04T10:34:03.110Z,938.81
2018-12-04T10:34:14.285Z,938.81
2018-12-04T10:34:26.644Z,938.8
2018-12-04T10:34:38.653Z,938.77
2018-12-04T10:34:51.124Z,938.77
2018-12-04T10:35:02.133Z,938.74
2018-12-04T10:36:03.929Z,938.65
2018-12-04T10:36:14.896Z,938.69
2018-12-04T10:36:26.397Z,938.65
2018-12-04T10:37:26.164Z,938.66
2018-12-04T10:38:27.205Z,938.65
2018-12-04T10:39:28.170Z,938.72
2018-12-04T10:40:29.309Z,938.69
2018-12-04T10:41:29.720Z,938.67
2018-12-04T10:42:30.134Z,938.63
2018-12-04T10:43:30.382Z,938.65
2018-12-04T10:44:31.127Z,938.65
2018-12-04T10:45:32.788Z,938.68
2018-12-04T10:46:33.199Z,938.7
2018-12-04T10:47:34.346Z,938.71
2018-12-04T10:48:34.753Z,938.71
2018-12-04T10:49:35.166Z,938.71
2018-12-04T10:50:36.325Z,938.8
2018-12-04T10:51:39.631Z,938.93
2018-12-04T10:51:49.070Z,938.95
2018-12-04T10:52:49.792Z,939.09
2018-12-04T10:53:51.202Z,939.18
2018-12-04T10:54:51.929Z,939.29
2018-12-04T10:55:52.637Z,939.37
2018-12-04T10:56:53.046Z,939.36
2018-12-04T10:57:54.178Z,939.32
2018-12-04T10:58:55.145Z,939.43
2018-12-04T10:59:55.556Z,939.33
2018-12-04T11:00:56.290Z,939.41
2018-12-04T11:01:57.780Z,939.4
2018-12-04T11:02:58.516Z,939.41
2018-12-04T11:03:58.923Z,939.39
2018-12-04T11:04:59.166Z,939.37
2018-12-04T11:06:01.347Z,939.36
2018-12-04T11:06:12.069Z,939.41
2018-12-04T11:07:12.916Z,939.46
2018-12-04T11:08:13.616Z,939.46
2018-12-04T11:09:14.062Z,939.5
2018-12-04T11:10:14.471Z,939.54
2018-12-04T11:11:14.882Z,939.56
2018-12-04T11:12:15.371Z,939.55
2018-12-04T11:13:15.955Z,939.55
2018-12-04T11:14:16.365Z,939.51
2018-12-04T11:15:17.121Z,939.55
2018-12-04T11:16:17.413Z,939.61
2018-12-04T11:17:18.885Z,939.53
2018-12-04T11:18:19.590Z,939.54
2018-12-04T11:19:20.449Z,939.56
2018-12-04T11:20:21.967Z,939.52
2018-12-04T11:21:22.978Z,939.53
2018-12-04T11:22:23.341Z,939.55
2018-12-04T11:23:24.198Z,939.58
2018-12-04T11:24:25.046Z,939.54
2018-12-04T11:25:25.218Z,939.54
2018-12-04T11:26:25.754Z,939.59
2018-12-04T11:27:26.289Z,939.54
2018-12-04T11:28:29.594Z,939.56
2018-12-04T11:28:39.200Z,939.54
2018-12-04T11:29:39.575Z,939.58
2018-12-04T11:30:39.981Z,939.57
2018-12-04T11:31:40.667Z,939.63
2018-12-04T11:32:41.636Z,939.65
2018-12-04T11:33:42.327Z,939.66
2018-12-04T11:34:43.461Z,939.66
2018-12-04T11:35:46.130Z,939.69
2018-12-04T11:36:48.248Z,939.64
2018-12-04T11:36:59.052Z,939.69
2018-12-04T11:37:59.631Z,939.69
2018-12-04T11:39:02.108Z,939.75
2018-12-04T11:40:01.844Z,939.78
2018-12-04T11:41:02.363Z,939.83
2018-12-04T11:42:04.515Z,939.85
2018-12-04T11:42:15.457Z,939.81
2018-12-04T11:43:17.358Z,939.9
2018-12-04T11:43:29.380Z,939.9
2018-12-04T11:43:41.798Z,939.9
2018-12-04T11:43:52.967Z,939.92
2018-12-04T11:44:55.375Z,939.91
2018-12-04T11:45:07.035Z,939.92
2018-12-04T11:46:07.681Z,939.96
2018-12-04T11:47:08.837Z,940.04
2018-12-04T11:48:09.961Z,940.02
2018-12-04T11:49:11.498Z,940.07
2018-12-04T11:50:12.204Z,940.14
2018-12-04T11:51:12.893Z,940.13
2018-12-04T11:52:14.314Z,940.11
2018-12-04T11:53:14.725Z,940.12
2018-12-04T11:54:15.481Z,940.07
2018-12-04T11:54:27.649Z,940.06
2018-12-04T11:54:40.114Z,940.05
2018-12-04T11:55:41.509Z,940.1
2018-12-04T11:56:43.620Z,940.03
2018-12-04T11:57:44.212Z,940
2018-12-04T11:58:44.897Z,940.01
2018-12-04T11:59:45.586Z,940
2018-12-04T12:00:46.274Z,940.05
2018-12-04T12:01:46.898Z,940.1
2018-12-04T12:02:47.396Z,940.07
2018-12-04T12:03:48.085Z,940.12
2018-12-04T12:04:48.498Z,940.1
2018-12-04T12:05:50.515Z,940.16
2018-12-04T12:06:02.126Z,940.13
2018-12-04T12:07:02.444Z,940.15
2018-12-04T12:08:02.854Z,940.22
2018-12-04T12:09:03.268Z,940.19